createdAt,value
2022-07-30T00:01:59.876Z,26.30
2022-07-30T00:06:02.895Z,26.30
2022-07-30T00:10:06.242Z,26.20
2022-07-30T00:14:09.382Z,26.10
2022-07-30T00:18:13.432Z,26.00
2022-07-30T00:22:16.257Z,26.00
2022-07-30T00:26:19.054Z,25.90
2022-07-30T00:30:22.700Z,25.80
2022-07-30T00:34:26.200Z,25.70
2022-07-30T00:38:28.903Z,25.60
2022-07-30T00:42:46.266Z,25.50
2022-07-30T00:46:49.186Z,25.40
2022-07-30T00:50:52.115Z,25.30
2022-07-30T00:54:55.006Z,25.20
2022-07-30T00:58:57.796Z,25.10
2022-07-30T01:03:00.650Z,25.10
2022-07-30T01:07:03.723Z,25.10
2022-07-30T01:11:07.447Z,25.10
2022-07-30T01:15:11.246Z,25.00
2022-07-30T01:19:40.057Z,25.00
2022-07-30T01:23:46.661Z,25.10
2022-07-30T01:27:59.558Z,25.00
2022-07-30T01:32:04.335Z,25.00
2022-07-30T01:36:12.522Z,25.00
2022-07-30T01:40:15.903Z,24.80
2022-07-30T01:44:23.796Z,24.70
2022-07-30T01:48:29.154Z,24.60
2022-07-30T01:52:34.076Z,24.50
2022-07-30T01:56:37.886Z,24.50
2022-07-30T02:00:44.817Z,24.40
2022-07-30T02:04:48.247Z,24.30
2022-07-30T02:09:02.233Z,24.20
2022-07-30T02:13:25.305Z,24.10
2022-07-30T02:17:45.121Z,24.10
2022-07-30T02:21:53.976Z,24.10
2022-07-30T02:25:59.798Z,24.10
2022-07-30T02:30:04.735Z,24.10
2022-07-30T02:34:10.867Z,24.00
2022-07-30T02:38:16.360Z,24.00
2022-07-30T02:42:21.569Z,24.00
2022-07-30T02:46:25.369Z,23.90
2022-07-30T02:50:53.384Z,23.80
2022-07-30T02:54:58.006Z,23.80
2022-07-30T02:59:03.338Z,23.80
2022-07-30T03:03:08.901Z,23.70
2022-07-30T03:07:15.196Z,23.50
2022-07-30T03:11:21.134Z,23.50
2022-07-30T03:15:24.454Z,23.50
2022-07-30T03:19:31.058Z,23.50
2022-07-30T03:23:37.127Z,23.50
2022-07-30T03:27:41.409Z,23.40
2022-07-30T03:31:45.460Z,23.30
2022-07-30T03:35:51.007Z,23.30
2022-07-30T03:39:54.888Z,23.30
2022-07-30T03:43:58.208Z,23.30
2022-07-30T03:48:01.761Z,23.20
2022-07-30T03:52:09.550Z,23.20
2022-07-30T03:56:15.050Z,23.00
2022-07-30T04:00:51.386Z,23.00
2022-07-30T04:04:55.348Z,23.00
2022-07-30T04:09:01.354Z,23.00
2022-07-30T04:13:11.040Z,23.00
2022-07-30T04:17:26.002Z,23.00
2022-07-30T04:21:32.266Z,23.00
2022-07-30T04:25:36.925Z,22.90
2022-07-30T04:29:40.844Z,22.90
2022-07-30T04:33:46.381Z,23.00
2022-07-30T04:37:58.573Z,23.00
2022-07-30T04:42:01.672Z,23.00
2022-07-30T04:46:12.013Z,23.00
2022-07-30T04:50:16.732Z,23.00
2022-07-30T04:54:24.879Z,23.00
2022-07-30T04:58:34.330Z,23.00
2022-07-30T05:02:40.407Z,22.80
2022-07-30T05:06:44.044Z,22.60
2022-07-30T05:10:47.264Z,22.60
2022-07-30T05:14:51.293Z,22.60
2022-07-30T05:18:54.453Z,22.60
2022-07-30T05:22:57.686Z,22.70
2022-07-30T05:27:01.965Z,22.80
2022-07-30T05:31:08.237Z,22.90
2022-07-30T05:35:13.588Z,22.90
2022-07-30T05:39:18.231Z,23.00
2022-07-30T05:43:44.281Z,23.20
2022-07-30T05:47:49.298Z,23.10
2022-07-30T05:51:53.019Z,23.30
2022-07-30T05:55:55.953Z,23.50
2022-07-30T06:00:28.664Z,23.80
2022-07-30T06:04:31.896Z,24.10
2022-07-30T06:08:39.550Z,24.10
2022-07-30T06:12:42.705Z,24.30
2022-07-30T06:16:45.984Z,24.50
2022-07-30T06:20:51.579Z,24.50
2022-07-30T06:25:23.804Z,24.70
2022-07-30T06:29:27.524Z,25.10
2022-07-30T06:33:30.486Z,25.40
2022-07-30T06:38:06.210Z,25.80
2022-07-30T06:41:59.276Z,26.10
2022-07-30T06:46:19.230Z,26.50
2022-07-30T06:50:25.648Z,26.90
2022-07-30T06:54:30.008Z,27.10
2022-07-30T06:58:44.976Z,27.30
2022-07-30T07:03:11.389Z,27.50
2022-07-30T07:07:19.968Z,27.60
2022-07-30T07:11:34.871Z,27.80
2022-07-30T07:15:43.055Z,28.00
2022-07-30T07:20:01.758Z,28.10
2022-07-30T07:24:09.472Z,28.10
2022-07-30T07:28:40.428Z,28.40
2022-07-30T07:32:43.901Z,28.70
2022-07-30T07:36:48.862Z,29.00
2022-07-30T07:40:51.679Z,29.10
2022-07-30T07:44:54.492Z,29.30
2022-07-30T07:48:57.613Z,29.40
2022-07-30T07:53:29.493Z,29.40
2022-07-30T07:57:32.303Z,29.70
2022-07-30T08:01:36.418Z,29.70
2022-07-30T08:06:06.267Z,29.60
2022-07-30T08:10:35.572Z,29.90
2022-07-30T08:14:57.119Z,30.00
2022-07-30T08:19:20.314Z,30.10
2022-07-30T08:23:42.698Z,30.40
2022-07-30T08:27:45.977Z,30.50
2022-07-30T08:31:49.311Z,30.70
2022-07-30T08:35:58.206Z,30.80
2022-07-30T08:40:09.178Z,30.80
2022-07-30T08:44:21.865Z,30.90
2022-07-30T08:48:28.136Z,31.10
2022-07-30T08:52:38.862Z,31.30
2022-07-30T08:56:43.360Z,31.50
2022-07-30T09:00:46.222Z,31.30
2022-07-30T09:04:49.010Z,31.00
2022-07-30T09:08:52.597Z,31.10
2022-07-30T09:12:55.330Z,31.30
2022-07-30T09:16:58.329Z,31.50
2022-07-30T09:21:13.417Z,31.90
2022-07-30T09:25:16.343Z,31.60
2022-07-30T09:29:59.659Z,31.80
2022-07-30T09:34:32.149Z,31.80
2022-07-30T09:38:59.006Z,31.50
2022-07-30T09:43:30.756Z,31.50
2022-07-30T09:47:50.571Z,31.70
2022-07-30T09:51:57.528Z,31.30
2022-07-30T09:56:22.515Z,31.30
2022-07-30T10:00:30.103Z,31.20
2022-07-30T10:05:14.149Z,31.20
2022-07-30T10:09:37.237Z,30.90
2022-07-30T10:13:45.664Z,30.60
2022-07-30T10:17:49.881Z,30.90
2022-07-30T10:22:03.803Z,30.90
2022-07-30T10:26:26.976Z,30.70
2022-07-30T10:31:08.578Z,30.90
2022-07-30T10:35:34.615Z,31.30
2022-07-30T10:39:50.688Z,31.50
2022-07-30T10:44:15.728Z,31.70
2022-07-30T10:48:21.129Z,31.80
2022-07-30T10:52:54.304Z,32.10
2022-07-30T10:57:22.749Z,32.50
2022-07-30T11:01:51.760Z,32.90
2022-07-30T11:06:15.254Z,33.10
2022-07-30T11:10:39.837Z,33.30
2022-07-30T11:14:48.878Z,33.10
2022-07-30T11:19:56.467Z,33.30
2022-07-30T11:23:40.677Z,33.30
2022-07-30T11:27:48.576Z,32.90
2022-07-30T11:31:56.296Z,32.80
2022-07-30T11:36:12.393Z,32.90
2022-07-30T11:40:15.244Z,33.10
2022-07-30T11:44:29.062Z,33.20
2022-07-30T11:48:32.738Z,33.40
2022-07-30T11:52:35.709Z,33.50
2022-07-30T11:57:00.848Z,33.40
2022-07-30T12:01:18.248Z,33.30
2022-07-30T12:05:26.842Z,33.20
2022-07-30T12:09:30.011Z,33.00
2022-07-30T12:13:44.004Z,32.90
2022-07-30T12:17:47.501Z,32.90
2022-07-30T12:21:53.252Z,33.00
2022-07-30T12:25:57.451Z,33.30
2022-07-30T12:30:01.236Z,33.30
2022-07-30T12:34:04.163Z,33.60
2022-07-30T12:38:07.304Z,33.70
2022-07-30T12:42:21.653Z,33.70
2022-07-30T12:46:37.145Z,33.60
2022-07-30T12:50:39.874Z,33.60
2022-07-30T12:54:43.361Z,33.70
2022-07-30T12:58:47.182Z,34.10
2022-07-30T13:02:51.634Z,34.40
2022-07-30T13:07:11.599Z,34.60
2022-07-30T13:11:15.375Z,34.50
2022-07-30T13:15:20.030Z,34.50
2022-07-30T13:19:22.940Z,34.70
2022-07-30T13:23:26.647Z,34.80
2022-07-30T13:27:29.638Z,34.70
2022-07-30T13:31:43.204Z,34.50
2022-07-30T13:35:46.833Z,34.60
2022-07-30T13:39:49.780Z,34.60
2022-07-30T13:43:52.567Z,34.60
2022-07-30T13:47:55.545Z,34.90
2022-07-30T13:51:58.591Z,34.90
2022-07-30T13:56:01.776Z,34.80
2022-07-30T14:00:07.152Z,35.10
2022-07-30T14:04:09.854Z,35.40
2022-07-30T14:08:12.604Z,35.30
2022-07-30T14:12:15.837Z,35.00
2022-07-30T14:16:42.868Z,34.60
2022-07-30T14:20:46.809Z,34.40
2022-07-30T14:24:51.314Z,34.00
2022-07-30T14:28:54.421Z,33.80
2022-07-30T14:33:01.577Z,33.80
2022-07-30T14:37:06.947Z,34.00
2022-07-30T14:41:12.791Z,34.00
2022-07-30T14:45:16.840Z,33.90
2022-07-30T14:49:22.719Z,33.80
2022-07-30T14:53:26.551Z,33.80
2022-07-30T14:57:29.282Z,33.80
2022-07-30T15:01:33.288Z,34.10
2022-07-30T15:05:38.674Z,34.40
2022-07-30T15:09:42.664Z,34.60
2022-07-30T15:13:50.192Z,34.90
2022-07-30T15:17:56.754Z,35.10
2022-07-30T15:22:03.528Z,34.80
2022-07-30T15:26:07.595Z,34.50
2022-07-30T15:30:16.392Z,34.10
2022-07-30T15:34:19.216Z,33.90
2022-07-30T15:38:22.041Z,33.80
2022-07-30T15:42:27.325Z,33.90
2022-07-30T15:46:33.044Z,33.90
2022-07-30T15:50:35.969Z,33.80
2022-07-30T15:54:38.902Z,33.30
2022-07-30T15:58:43.649Z,33.00
2022-07-30T16:02:46.476Z,33.00
2022-07-30T16:06:50.227Z,33.30
2022-07-30T16:10:53.089Z,33.10
2022-07-30T16:14:55.973Z,32.90
2022-07-30T16:18:59.718Z,32.90
2022-07-30T16:23:03.553Z,32.60
2022-07-30T16:27:06.382Z,32.90
2022-07-30T16:31:09.459Z,32.80
2022-07-30T16:35:13.598Z,32.40
2022-07-30T16:39:17.202Z,32.40
2022-07-30T16:43:20.858Z,33.50
2022-07-30T16:47:24.991Z,34.70
2022-07-30T16:51:27.687Z,35.80
2022-07-30T16:55:30.526Z,36.30
2022-07-30T16:59:43.610Z,36.60
2022-07-30T17:03:46.701Z,36.70
2022-07-30T17:07:53.379Z,36.20
2022-07-30T17:12:00.386Z,36.50
2022-07-30T17:16:04.074Z,37.00
2022-07-30T17:20:07.487Z,37.10
2022-07-30T17:24:15.697Z,37.00
2022-07-30T17:28:19.604Z,37.20
2022-07-30T17:32:28.277Z,37.50
2022-07-30T17:36:31.304Z,37.40
2022-07-30T17:40:34.085Z,37.40
2022-07-30T17:44:37.118Z,37.20
2022-07-30T17:48:40.638Z,37.10
2022-07-30T17:52:43.702Z,36.80
2022-07-30T17:56:46.753Z,35.40
2022-07-30T18:00:49.943Z,34.20
2022-07-30T18:04:56.192Z,33.40
2022-07-30T18:08:59.456Z,32.80
2022-07-30T18:13:26.212Z,32.50
2022-07-30T18:17:30.774Z,32.10
2022-07-30T18:21:34.414Z,31.50
2022-07-30T18:25:51.643Z,31.10
2022-07-30T18:29:55.923Z,30.80
2022-07-30T18:33:58.787Z,30.50
2022-07-30T18:38:01.726Z,30.20
2022-07-30T18:42:05.129Z,30.00
2022-07-30T18:46:08.644Z,29.80
2022-07-30T18:50:19.524Z,29.50
2022-07-30T18:54:23.657Z,29.40
2022-07-30T18:58:27.833Z,29.20
2022-07-30T19:02:30.702Z,29.00
2022-07-30T19:06:38.084Z,29.00
2022-07-30T19:10:40.821Z,28.80
2022-07-30T19:14:44.687Z,28.70
2022-07-30T19:18:48.740Z,28.60
2022-07-30T19:22:51.609Z,28.50
2022-07-30T19:26:54.675Z,28.40
2022-07-30T19:30:57.702Z,28.30
2022-07-30T19:35:01.576Z,28.30
2022-07-30T19:39:07.025Z,28.20
2022-07-30T19:43:10.539Z,28.10
2022-07-30T19:47:17.207Z,28.10
2022-07-30T19:51:25.181Z,28.00
2022-07-30T19:55:45.145Z,28.00
2022-07-30T20:00:04.089Z,27.90
2022-07-30T20:04:14.424Z,27.90
2022-07-30T20:08:24.922Z,27.80
2022-07-30T20:12:56.922Z,27.50
2022-07-30T20:17:02.458Z,27.30
2022-07-30T20:21:11.306Z,27.10
2022-07-30T20:25:21.850Z,26.90
2022-07-30T20:29:39.149Z,26.90
2022-07-30T20:38:10.226Z,26.80
2022-07-30T20:42:13.722Z,26.90
2022-07-30T20:46:19.575Z,26.90
2022-07-30T20:50:30.207Z,26.90
2022-07-30T20:54:33.838Z,26.90
2022-07-30T20:58:37.168Z,26.90
2022-07-30T21:02:40.285Z,26.90
2022-07-30T21:06:45.950Z,26.90
2022-07-30T21:10:50.514Z,26.90
2022-07-30T21:14:53.968Z,26.80
2022-07-30T21:18:56.761Z,26.70
2022-07-30T21:23:11.636Z,26.70
2022-07-30T21:27:17.124Z,26.60
2022-07-30T21:31:58.094Z,26.50
2022-07-30T21:35:45.833Z,26.40
2022-07-30T21:39:48.873Z,26.20
2022-07-30T21:43:52.150Z,26.00
2022-07-30T21:47:56.907Z,25.80
2022-07-30T21:52:01.791Z,25.50
2022-07-30T21:56:05.035Z,25.40
2022-07-30T22:00:14.767Z,25.20
2022-07-30T22:04:18.151Z,25.00
2022-07-30T22:08:21.329Z,24.90
2022-07-30T22:12:29.193Z,24.80
2022-07-30T22:16:34.245Z,24.70
2022-07-30T22:20:38.338Z,24.60
2022-07-30T22:24:43.330Z,24.70
2022-07-30T22:28:46.476Z,24.60
2022-07-30T22:33:06.062Z,24.60
2022-07-30T22:37:12.855Z,24.50
2022-07-30T22:41:16.319Z,24.40
2022-07-30T22:45:47.133Z,24.50
2022-07-30T22:49:46.072Z,24.50
2022-07-30T22:54:10.560Z,24.50
2022-07-30T22:58:14.761Z,24.50
2022-07-30T23:02:17.878Z,24.40
2022-07-30T23:06:23.824Z,24.40
2022-07-30T23:10:28.245Z,24.30
2022-07-30T23:12:19.261Z,26.80
2022-07-30T23:14:31.078Z,24.20
2022-07-30T23:18:40.062Z,24.10
2022-07-30T23:22:48.254Z,24.00
2022-07-30T23:26:52.268Z,23.90
2022-07-30T23:30:55.047Z,23.70
2022-07-30T23:34:58.206Z,23.70
2022-07-30T23:39:01.153Z,23.70
2022-07-30T23:43:04.278Z,23.70
2022-07-30T23:47:07.419Z,23.60
2022-07-30T23:51:10.238Z,23.50
2022-07-30T23:55:14.111Z,23.50
2022-07-30T23:59:17.014Z,23.30
